createdAt,value
2024-01-24T00:01:51.858Z,1.00
2024-01-24T00:04:20.179Z,1.08
2024-01-24T00:06:48.366Z,1.10
2024-01-24T00:09:17.794Z,1.05
2024-01-24T00:11:45.982Z,0.90
2024-01-24T00:14:14.314Z,0.70
2024-01-24T00:16:42.490Z,0.70
2024-01-24T00:19:10.686Z,1.05
2024-01-24T00:21:40.181Z,0.82
2024-01-24T00:24:08.554Z,1.30
2024-01-24T00:26:40.252Z,1.10
2024-01-24T00:29:08.848Z,0.82
2024-01-24T00:31:36.972Z,1.00
2024-01-24T00:34:05.393Z,0.80
2024-01-24T00:36:33.548Z,0.90
2024-01-24T00:39:01.817Z,1.00
2024-01-24T00:41:29.876Z,0.95
2024-01-24T00:43:59.783Z,0.90
2024-01-24T00:46:27.908Z,0.80
2024-01-24T00:48:56.045Z,0.80
2024-01-24T00:51:24.146Z,0.60
2024-01-24T00:53:53.664Z,0.70
2024-01-24T00:56:22.014Z,0.80
2024-01-24T00:58:50.067Z,0.80
2024-01-24T01:01:19.549Z,1.10
2024-01-24T01:03:47.880Z,1.20
2024-01-24T01:06:17.155Z,0.80
2024-01-24T01:08:45.286Z,0.75
2024-01-24T01:11:13.379Z,1.00
2024-01-24T01:13:41.449Z,0.95
2024-01-24T01:16:09.520Z,1.00
2024-01-24T01:18:38.929Z,1.05
2024-01-24T01:21:07.197Z,0.95
2024-01-24T01:23:35.213Z,0.88
2024-01-24T01:26:03.194Z,1.10
2024-01-24T01:28:31.174Z,0.93
2024-01-24T01:30:59.139Z,0.90
2024-01-24T01:33:27.534Z,0.82
2024-01-24T01:36:08.497Z,1.00
2024-01-24T01:38:42.145Z,0.90
2024-01-24T01:41:10.116Z,0.90
2024-01-24T01:43:38.069Z,1.00
2024-01-24T01:46:09.016Z,0.93
2024-01-24T01:48:37.616Z,0.70
2024-01-24T01:51:08.915Z,0.88
2024-01-24T01:53:39.939Z,1.08
2024-01-24T01:56:10.398Z,0.70
2024-01-24T01:58:39.134Z,1.05
2024-01-24T02:01:09.299Z,0.90
2024-01-24T02:03:39.376Z,1.13
2024-01-24T02:06:09.394Z,0.98
2024-01-24T02:08:37.666Z,0.80
2024-01-24T02:11:06.266Z,0.70
2024-01-24T02:13:34.617Z,0.90
2024-01-24T02:16:03.166Z,1.02
2024-01-24T02:18:31.546Z,0.80
2024-01-24T02:20:59.728Z,0.63
2024-01-24T02:23:29.211Z,0.80
2024-01-24T02:25:58.978Z,0.85
2024-01-24T02:28:27.239Z,0.63
2024-01-24T02:30:55.466Z,0.77
2024-01-24T02:33:23.735Z,0.70
2024-01-24T02:35:52.188Z,0.70
2024-01-24T02:38:20.290Z,1.10
2024-01-24T02:40:48.526Z,0.75
2024-01-24T02:43:18.027Z,0.60
2024-01-24T02:45:46.254Z,0.82
2024-01-24T02:48:14.426Z,0.90
2024-01-24T02:50:42.676Z,0.88
2024-01-24T02:53:11.019Z,0.85
2024-01-24T02:55:40.414Z,0.70
2024-01-24T02:58:08.910Z,0.70
2024-01-24T03:00:38.582Z,0.85
2024-01-24T03:03:07.410Z,0.82
2024-01-24T03:05:35.634Z,0.88
2024-01-24T03:08:05.465Z,0.73
2024-01-24T03:10:33.634Z,1.00
2024-01-24T03:13:01.835Z,0.80
2024-01-24T03:15:30.037Z,0.90
2024-01-24T03:17:59.546Z,0.80
2024-01-24T03:20:27.629Z,0.70
2024-01-24T03:22:55.919Z,0.70
2024-01-24T03:25:23.923Z,0.90
2024-01-24T03:27:52.259Z,1.10
2024-01-24T03:30:20.547Z,0.88
2024-01-24T03:32:48.758Z,1.00
2024-01-24T03:35:18.252Z,1.00
2024-01-24T03:37:46.614Z,1.02
2024-01-24T03:40:14.968Z,1.02
2024-01-24T03:42:43.634Z,0.90
2024-01-24T03:45:12.227Z,0.70
2024-01-24T03:47:40.647Z,1.25
2024-01-24T03:50:09.519Z,0.90
2024-01-24T03:52:38.987Z,0.88
2024-01-24T03:55:07.902Z,1.20
2024-01-24T03:57:36.084Z,1.10
2024-01-24T04:00:06.984Z,0.90
2024-01-24T04:02:35.200Z,0.85
2024-01-24T04:05:03.550Z,0.70
2024-01-24T04:07:31.692Z,1.60
2024-01-24T04:10:02.965Z,0.88
2024-01-24T04:12:31.088Z,0.98
2024-01-24T04:14:59.093Z,0.90
2024-01-24T04:17:27.450Z,0.90
2024-01-24T04:19:55.677Z,0.82
2024-01-24T04:22:23.770Z,1.00
2024-01-24T04:24:51.854Z,1.00
2024-01-24T04:27:21.879Z,0.70
2024-01-24T04:29:50.026Z,0.82
2024-01-24T04:32:18.103Z,1.10
2024-01-24T04:34:46.815Z,0.95
2024-01-24T04:37:15.078Z,1.05
2024-01-24T04:39:43.324Z,0.90
2024-01-24T04:42:16.413Z,0.85
2024-01-24T04:44:47.056Z,1.20
2024-01-24T04:47:15.673Z,0.90
2024-01-24T04:49:45.863Z,0.95
2024-01-24T04:52:15.800Z,0.88
2024-01-24T04:54:44.466Z,1.10
2024-01-24T04:57:12.812Z,1.00
2024-01-24T04:59:49.769Z,0.90
2024-01-24T05:02:24.994Z,0.82
2024-01-24T05:04:53.159Z,1.20
2024-01-24T05:07:21.371Z,0.85
2024-01-24T05:09:49.505Z,0.90
2024-01-24T05:12:17.641Z,0.90
2024-01-24T05:14:45.795Z,1.00
2024-01-24T05:17:13.908Z,0.90
2024-01-24T05:19:43.370Z,1.50
2024-01-24T05:22:11.985Z,1.10
2024-01-24T05:24:40.043Z,1.08
2024-01-24T05:27:09.183Z,1.00
2024-01-24T05:29:37.219Z,1.20
2024-01-24T05:32:05.761Z,1.40
2024-01-24T05:34:33.914Z,1.08
2024-01-24T05:37:03.556Z,0.95
2024-01-24T05:39:31.630Z,0.80
2024-01-24T05:42:00.190Z,0.98
2024-01-24T05:44:28.256Z,0.85
2024-01-24T05:46:56.350Z,1.00
2024-01-24T05:49:24.492Z,0.80
2024-01-24T05:51:52.618Z,1.00
2024-01-24T05:54:22.100Z,1.00
2024-01-24T05:56:50.167Z,1.10
2024-01-24T05:59:26.000Z,1.10
2024-01-24T06:01:54.089Z,1.00
2024-01-24T06:04:22.348Z,1.00
2024-01-24T06:06:50.557Z,1.10
2024-01-24T06:09:21.783Z,1.20
2024-01-24T06:11:51.284Z,1.10
2024-01-24T06:14:19.815Z,1.15
2024-01-24T06:16:47.965Z,0.98
2024-01-24T06:19:16.159Z,1.17
2024-01-24T06:21:44.276Z,1.30
2024-01-24T06:24:12.428Z,1.02
2024-01-24T06:26:40.807Z,1.20
2024-01-24T06:29:10.677Z,0.95
2024-01-24T06:31:38.684Z,1.20
2024-01-24T06:34:06.780Z,0.90
2024-01-24T06:36:35.587Z,0.77
2024-01-24T06:39:03.846Z,0.82
2024-01-24T06:41:32.109Z,1.20
2024-01-24T06:44:00.292Z,1.20
2024-01-24T06:46:29.788Z,1.00
2024-01-24T06:48:57.989Z,0.90
2024-01-24T06:51:26.236Z,1.27
2024-01-24T06:53:54.314Z,1.25
2024-01-24T06:56:23.544Z,1.00
2024-01-24T06:58:51.994Z,1.10
2024-01-24T07:01:20.133Z,1.27
2024-01-24T07:03:49.864Z,1.00
2024-01-24T07:06:18.456Z,0.90
2024-01-24T07:08:46.896Z,0.88
2024-01-24T07:11:15.013Z,1.02
2024-01-24T07:13:43.195Z,0.90
2024-01-24T07:16:11.495Z,0.80
2024-01-24T07:18:42.399Z,0.90
2024-01-24T07:21:12.357Z,1.10
2024-01-24T07:23:40.459Z,0.88
2024-01-24T07:26:08.676Z,0.90
2024-01-24T07:28:36.736Z,1.00
2024-01-24T07:31:05.078Z,0.98
2024-01-24T07:33:33.323Z,0.80
2024-01-24T07:36:01.543Z,0.90
2024-01-24T07:38:31.502Z,0.90
2024-01-24T07:40:59.589Z,1.05
2024-01-24T07:43:27.893Z,0.93
2024-01-24T07:45:56.428Z,0.80
2024-01-24T07:48:24.802Z,0.80
2024-01-24T07:50:53.548Z,0.90
2024-01-24T07:53:21.708Z,0.80
2024-01-24T07:55:56.234Z,0.73
2024-01-24T07:58:31.807Z,1.10
2024-01-24T08:01:04.083Z,1.88
2024-01-24T08:03:32.593Z,0.73
2024-01-24T08:06:00.921Z,0.80
2024-01-24T08:08:30.248Z,0.60
2024-01-24T08:10:59.730Z,0.63
2024-01-24T08:13:27.922Z,0.47
2024-01-24T08:15:58.925Z,0.68
2024-01-24T08:18:27.412Z,0.70
2024-01-24T08:20:56.639Z,0.55
2024-01-24T08:23:31.526Z,0.70
2024-01-24T08:26:07.995Z,0.60
2024-01-24T08:28:36.377Z,0.40
2024-01-24T08:31:04.673Z,0.77
2024-01-24T08:33:34.116Z,0.50
2024-01-24T08:36:02.426Z,0.60
2024-01-24T08:38:31.396Z,0.35
2024-01-24T08:40:59.518Z,0.50
2024-01-24T08:43:29.194Z,0.68
2024-01-24T08:45:57.441Z,0.50
2024-01-24T08:48:26.360Z,0.43
2024-01-24T08:50:55.033Z,0.50
2024-01-24T08:53:23.300Z,0.50
2024-01-24T08:55:56.056Z,0.50
2024-01-24T08:58:24.448Z,0.60
2024-01-24T09:00:55.224Z,0.43
2024-01-24T09:03:23.812Z,0.43
2024-01-24T09:05:53.531Z,0.45
2024-01-24T09:08:22.084Z,0.45
2024-01-24T09:10:50.297Z,0.60
2024-01-24T09:13:21.902Z,0.30
2024-01-24T09:15:50.421Z,0.40
2024-01-24T09:18:20.283Z,0.38
2024-01-24T09:20:49.806Z,0.30
2024-01-24T09:23:17.015Z,0.30
2024-01-24T09:25:45.434Z,0.30
2024-01-24T09:28:13.621Z,0.50
2024-01-24T09:30:41.935Z,0.35
2024-01-24T09:33:11.217Z,0.50
2024-01-24T09:35:41.735Z,0.45
2024-01-24T09:38:09.934Z,0.50
2024-01-24T09:40:38.331Z,0.40
2024-01-24T09:43:10.322Z,0.60
2024-01-24T09:45:40.788Z,0.60
2024-01-24T09:48:11.377Z,0.45
2024-01-24T09:50:42.731Z,0.47
2024-01-24T09:53:17.239Z,0.50
2024-01-24T09:55:47.029Z,0.88
2024-01-24T09:58:18.076Z,0.52
2024-01-24T10:00:49.223Z,0.40
2024-01-24T10:03:19.587Z,0.40
2024-01-24T10:05:51.862Z,0.50
2024-01-24T10:08:20.746Z,0.45
2024-01-24T10:10:49.021Z,0.50
2024-01-24T10:13:17.684Z,0.77
2024-01-24T10:15:45.858Z,0.63
2024-01-24T10:18:14.339Z,0.60
2024-01-24T10:20:43.909Z,0.80
2024-01-24T10:23:24.070Z,0.60
2024-01-24T10:25:52.824Z,1.40
2024-01-24T10:28:22.529Z,0.57
2024-01-24T10:30:51.259Z,0.50
2024-01-24T10:33:20.603Z,1.10
2024-01-24T10:35:50.214Z,0.30
2024-01-24T10:38:24.477Z,0.40
2024-01-24T10:40:59.570Z,0.60
2024-01-24T10:43:28.681Z,1.48
2024-01-24T10:45:57.730Z,0.50
2024-01-24T10:48:26.644Z,0.80
2024-01-24T10:50:58.340Z,0.40
2024-01-24T10:53:29.392Z,0.50
2024-01-24T10:55:59.856Z,0.30
2024-01-24T10:58:30.626Z,0.50
2024-01-24T11:01:00.399Z,0.50
2024-01-24T11:03:29.234Z,0.40
2024-01-24T11:06:01.900Z,0.60
2024-01-24T11:08:43.798Z,0.55
2024-01-24T11:11:20.523Z,0.68
2024-01-24T11:13:48.794Z,0.60
2024-01-24T11:16:42.293Z,0.50
2024-01-24T11:19:24.874Z,0.40
2024-01-24T11:21:55.185Z,1.30
2024-01-24T11:24:54.114Z,0.50
2024-01-24T11:27:35.872Z,0.47
2024-01-24T11:30:19.862Z,0.60
2024-01-24T11:33:05.798Z,0.57
2024-01-24T11:35:37.185Z,0.60
2024-01-24T11:38:16.830Z,0.40
2024-01-24T11:40:59.091Z,0.47
2024-01-24T11:43:31.093Z,0.47
2024-01-24T11:46:04.765Z,0.70
2024-01-24T11:48:34.832Z,0.68
2024-01-24T11:51:04.161Z,0.63
2024-01-24T11:53:32.513Z,0.40
2024-01-24T11:56:04.007Z,0.60
2024-01-24T11:58:32.488Z,0.65
2024-01-24T12:01:05.338Z,0.63
2024-01-24T12:03:34.029Z,0.60
2024-01-24T12:06:03.360Z,0.60
2024-01-24T12:08:31.575Z,0.60
2024-01-24T12:11:01.122Z,0.55
2024-01-24T12:13:30.848Z,0.77
2024-01-24T12:16:00.690Z,0.80
2024-01-24T12:18:29.633Z,1.08
2024-01-24T12:21:02.279Z,1.35
2024-01-24T12:23:31.460Z,0.90
2024-01-24T12:26:01.218Z,0.65
2024-01-24T12:28:30.983Z,0.80
2024-01-24T12:31:00.213Z,0.82
2024-01-24T12:33:34.092Z,0.90
2024-01-24T12:36:08.132Z,0.70
2024-01-24T12:38:37.541Z,0.90
2024-01-24T12:41:07.698Z,0.70
2024-01-24T12:43:37.864Z,1.10
2024-01-24T12:46:10.517Z,0.80
2024-01-24T12:48:39.588Z,0.80
2024-01-24T12:51:08.522Z,0.90
2024-01-24T12:53:37.163Z,1.20
2024-01-24T12:56:07.762Z,1.20
2024-01-24T12:58:36.052Z,1.73
2024-01-24T13:01:04.839Z,0.90
2024-01-24T13:03:33.462Z,1.10
2024-01-24T13:06:01.887Z,1.30
2024-01-24T13:08:30.307Z,1.35
2024-01-24T13:10:58.616Z,2.10
2024-01-24T13:13:28.337Z,2.22
2024-01-24T13:15:58.479Z,1.10
2024-01-24T13:18:26.971Z,2.35
2024-01-24T13:20:55.578Z,1.95
2024-01-24T13:23:23.773Z,5.57
2024-01-24T13:26:02.127Z,1.95
2024-01-24T13:28:31.845Z,1.65
2024-01-24T13:31:00.395Z,18.33
2024-01-24T13:33:29.335Z,2.70
2024-01-24T13:35:57.546Z,6.30
2024-01-24T13:38:27.389Z,4.18
2024-01-24T13:40:55.511Z,4.43
2024-01-24T13:43:23.768Z,1.65
2024-01-24T13:45:53.317Z,2.10
2024-01-24T13:48:21.539Z,2.10
2024-01-24T13:50:49.994Z,2.08
2024-01-24T13:53:18.927Z,3.10
2024-01-24T13:55:47.192Z,2.72
2024-01-24T13:58:15.665Z,1.33
2024-01-24T14:00:44.722Z,1.65
2024-01-24T14:03:15.263Z,1.30
2024-01-24T14:05:44.528Z,0.88
2024-01-24T14:08:12.981Z,0.90
2024-01-24T14:10:41.147Z,0.90
2024-01-24T14:13:09.733Z,1.10
2024-01-24T14:15:39.442Z,0.60
2024-01-24T14:18:08.626Z,0.80
2024-01-24T14:20:38.188Z,1.00
2024-01-24T14:23:07.747Z,0.90
2024-01-24T14:25:35.842Z,0.80
2024-01-24T14:28:04.176Z,0.80
2024-01-24T14:30:32.528Z,0.98
2024-01-24T14:33:00.853Z,1.00
2024-01-24T14:35:31.834Z,0.70
2024-01-24T14:38:02.093Z,1.27
2024-01-24T14:40:30.732Z,0.90
2024-01-24T14:42:59.107Z,0.82
2024-01-24T14:45:28.450Z,0.80
2024-01-24T14:47:56.710Z,0.95
2024-01-24T14:50:25.003Z,1.42
2024-01-24T14:52:53.144Z,1.30
2024-01-24T14:55:22.759Z,1.92
2024-01-24T14:57:52.874Z,1.33
2024-01-24T15:00:21.884Z,1.10
2024-01-24T15:02:51.680Z,1.30
2024-01-24T15:05:22.362Z,0.98
2024-01-24T15:07:51.083Z,1.10
2024-01-24T15:10:19.893Z,1.30
2024-01-24T15:12:49.725Z,1.20
2024-01-24T15:15:18.587Z,1.17
2024-01-24T15:17:48.288Z,1.52
2024-01-24T15:20:17.143Z,1.05
2024-01-24T15:22:45.612Z,1.05
2024-01-24T15:25:13.919Z,0.98
2024-01-24T15:27:41.994Z,1.50
2024-01-24T15:30:14.327Z,1.77
2024-01-24T15:32:42.524Z,1.25
2024-01-24T15:35:10.758Z,1.70
2024-01-24T15:37:39.088Z,1.30
2024-01-24T15:40:11.112Z,1.77
2024-01-24T15:42:44.217Z,1.15
2024-01-24T15:45:15.242Z,1.20
2024-01-24T15:47:44.072Z,1.67
2024-01-24T15:50:13.792Z,1.40
2024-01-24T15:52:42.096Z,1.42
2024-01-24T15:55:11.061Z,1.45
2024-01-24T15:57:39.305Z,1.50
2024-01-24T16:00:11.559Z,1.35
2024-01-24T16:02:42.682Z,1.42
2024-01-24T16:05:22.039Z,1.25
2024-01-24T16:07:52.253Z,1.80
2024-01-24T16:10:20.514Z,1.48
2024-01-24T16:12:48.819Z,1.67
2024-01-24T16:15:18.271Z,1.55
2024-01-24T16:17:47.878Z,1.10
2024-01-24T16:20:16.543Z,1.50
2024-01-24T16:22:54.095Z,3.30
2024-01-24T16:25:24.253Z,2.20
2024-01-24T16:27:52.471Z,2.30
2024-01-24T16:30:21.238Z,2.65
2024-01-24T16:32:53.568Z,2.47
2024-01-24T16:35:22.094Z,2.53
2024-01-24T16:37:50.470Z,1.70
2024-01-24T16:40:18.807Z,1.70
2024-01-24T16:42:47.412Z,1.95
2024-01-24T16:45:16.035Z,1.73
2024-01-24T16:47:46.196Z,1.42
2024-01-24T16:50:16.144Z,1.60
2024-01-24T16:52:44.441Z,1.83
2024-01-24T16:55:13.347Z,2.05
2024-01-24T16:57:41.634Z,1.67
2024-01-24T17:00:11.385Z,1.40
2024-01-24T17:02:46.330Z,1.33
2024-01-24T17:05:21.175Z,1.70
2024-01-24T17:07:49.358Z,1.60
2024-01-24T17:10:18.535Z,5.80
2024-01-24T17:12:46.678Z,1.35
2024-01-24T17:15:15.228Z,1.63
2024-01-24T17:17:44.545Z,1.70
2024-01-24T17:20:12.963Z,1.60
2024-01-24T17:22:42.676Z,1.55
2024-01-24T17:25:11.724Z,1.88
2024-01-24T17:27:40.231Z,1.67
2024-01-24T17:30:11.370Z,1.48
2024-01-24T17:32:39.833Z,2.20
2024-01-24T17:35:08.656Z,1.33
2024-01-24T17:37:37.038Z,1.40
2024-01-24T17:40:08.509Z,1.60
2024-01-24T17:42:37.228Z,1.73
2024-01-24T17:45:06.232Z,1.63
2024-01-24T17:47:49.629Z,1.30
2024-01-24T17:50:18.718Z,1.35
2024-01-24T17:52:47.011Z,1.58
2024-01-24T17:55:16.493Z,1.92
2024-01-24T17:57:45.357Z,1.52
2024-01-24T18:00:15.355Z,1.90
2024-01-24T18:02:43.356Z,1.40
2024-01-24T18:05:12.360Z,1.73
2024-01-24T18:07:41.342Z,1.52
2024-01-24T18:10:10.462Z,1.60
2024-01-24T18:12:40.170Z,1.60
2024-01-24T18:15:09.076Z,2.33
2024-01-24T18:17:38.804Z,2.20
2024-01-24T18:20:08.597Z,2.25
2024-01-24T18:22:36.926Z,1.83
2024-01-24T18:25:06.119Z,2.30
2024-01-24T18:27:34.434Z,2.45
2024-01-24T18:30:04.817Z,2.40
2024-01-24T18:32:33.919Z,2.72
2024-01-24T18:35:02.352Z,3.15
2024-01-24T18:37:30.759Z,2.50
2024-01-24T18:39:58.899Z,2.67
2024-01-24T18:42:26.981Z,4.50
2024-01-24T18:44:55.096Z,3.63
2024-01-24T18:47:25.310Z,5.15
2024-01-24T18:49:54.236Z,5.80
2024-01-24T18:52:22.776Z,4.30
2024-01-24T18:54:53.290Z,4.13
2024-01-24T18:57:21.855Z,2.60
2024-01-24T18:59:50.389Z,3.63
2024-01-24T19:02:19.337Z,3.53
2024-01-24T19:04:49.537Z,3.30
2024-01-24T19:07:18.285Z,3.50
2024-01-24T19:09:48.237Z,2.92
2024-01-24T19:12:16.593Z,3.33
2024-01-24T19:14:46.741Z,3.20
2024-01-24T19:17:15.534Z,4.75
2024-01-24T19:19:43.788Z,3.47
2024-01-24T19:22:13.877Z,3.35
2024-01-24T19:24:42.238Z,4.25
2024-01-24T19:27:10.698Z,2.47
2024-01-24T19:29:39.196Z,2.83
2024-01-24T19:32:08.263Z,2.35
2024-01-24T19:34:37.292Z,2.42
2024-01-24T19:37:06.050Z,2.10
2024-01-24T19:39:35.730Z,2.70
2024-01-24T19:42:03.910Z,3.15
2024-01-24T19:44:32.024Z,2.35
2024-01-24T19:47:00.235Z,2.83
2024-01-24T19:49:28.711Z,2.97
2024-01-24T19:51:56.909Z,3.45
2024-01-24T19:54:25.002Z,2.55
2024-01-24T19:56:55.593Z,3.10
2024-01-24T19:59:23.694Z,3.75
2024-01-24T20:01:53.121Z,3.45
2024-01-24T20:04:22.029Z,3.40
2024-01-24T20:06:50.115Z,3.42
2024-01-24T20:09:19.313Z,3.22
2024-01-24T20:11:47.451Z,4.20
2024-01-24T20:14:17.521Z,3.80
2024-01-24T20:16:46.603Z,3.30
2024-01-24T20:19:15.986Z,3.53
2024-01-24T20:21:44.132Z,3.15
2024-01-24T20:24:12.889Z,3.67
2024-01-24T20:26:41.142Z,3.63
2024-01-24T20:29:09.316Z,3.90
2024-01-24T20:31:38.796Z,3.00
2024-01-24T20:34:07.350Z,3.08
2024-01-24T20:36:36.658Z,3.58
2024-01-24T20:39:05.046Z,4.50
2024-01-24T20:41:33.172Z,3.50
2024-01-24T20:44:01.312Z,4.13
2024-01-24T20:46:29.615Z,3.58
2024-01-24T20:48:59.313Z,3.60
2024-01-24T20:51:27.455Z,3.58
2024-01-24T20:53:55.532Z,4.00
2024-01-24T20:56:23.566Z,4.25
2024-01-24T20:58:52.705Z,4.28
2024-01-24T21:01:21.535Z,4.03
2024-01-24T21:03:50.358Z,3.45
2024-01-24T21:06:19.936Z,3.70
2024-01-24T21:08:48.175Z,3.83
2024-01-24T21:11:16.316Z,4.13
2024-01-24T21:13:44.359Z,3.63
2024-01-24T21:16:12.503Z,3.70
2024-01-24T21:18:40.630Z,3.33
2024-01-24T21:21:09.147Z,2.90
2024-01-24T21:23:38.653Z,3.30
2024-01-24T21:26:07.056Z,2.97
2024-01-24T21:28:35.191Z,3.63
2024-01-24T21:31:03.432Z,3.53
2024-01-24T21:33:33.037Z,4.00
2024-01-24T21:36:01.387Z,3.58
2024-01-24T21:38:29.531Z,2.92
2024-01-24T21:40:58.971Z,4.55
2024-01-24T21:43:27.113Z,3.17
2024-01-24T21:45:55.374Z,4.90
2024-01-24T21:48:23.483Z,4.63
2024-01-24T21:50:51.801Z,3.90
2024-01-24T21:53:20.340Z,7.15
2024-01-24T21:55:48.651Z,5.07
2024-01-24T21:58:18.149Z,3.60
2024-01-24T22:00:46.304Z,4.70
2024-01-24T22:03:14.416Z,2.75
2024-01-24T22:05:42.856Z,3.10
2024-01-24T22:08:11.188Z,2.75
2024-01-24T22:10:39.330Z,3.58
2024-01-24T22:13:07.787Z,3.72
2024-01-24T22:15:37.325Z,3.20
2024-01-24T22:18:05.907Z,3.75
2024-01-24T22:20:33.987Z,2.90
2024-01-24T22:23:02.064Z,2.60
2024-01-24T22:25:30.339Z,2.55
2024-01-24T22:27:58.566Z,3.85
2024-01-24T22:30:26.622Z,4.50
2024-01-24T22:32:56.083Z,3.00
2024-01-24T22:35:24.354Z,2.75
2024-01-24T22:37:52.457Z,3.90
2024-01-24T22:40:21.004Z,3.03
2024-01-24T22:42:49.400Z,6.20
2024-01-24T22:45:17.539Z,4.72
2024-01-24T22:47:45.676Z,3.53
2024-01-24T22:50:17.334Z,3.50
2024-01-24T22:52:46.664Z,3.10
2024-01-24T22:55:14.969Z,4.68
2024-01-24T22:57:47.723Z,5.03
2024-01-24T23:00:18.613Z,4.90
2024-01-24T23:02:47.469Z,4.45
2024-01-24T23:05:17.263Z,4.93
2024-01-24T23:07:45.555Z,5.45
2024-01-24T23:10:13.861Z,5.55
2024-01-24T23:12:42.052Z,6.75
2024-01-24T23:15:10.550Z,4.25
2024-01-24T23:17:38.690Z,6.40
2024-01-24T23:20:09.328Z,6.55
2024-01-24T23:22:38.832Z,3.65
2024-01-24T23:25:07.764Z,3.63
2024-01-24T23:27:35.915Z,4.22
2024-01-24T23:30:04.222Z,5.60
2024-01-24T23:32:32.288Z,5.72
2024-01-24T23:35:00.628Z,7.15
2024-01-24T23:37:28.961Z,7.70
2024-01-24T23:39:58.583Z,6.60
2024-01-24T23:42:26.886Z,6.18
2024-01-24T23:44:55.299Z,4.38
2024-01-24T23:47:23.303Z,6.10
2024-01-24T23:49:51.527Z,3.20
2024-01-24T23:52:19.873Z,3.63
2024-01-24T23:54:48.206Z,3.28
2024-01-24T23:57:17.643Z,3.75
2024-01-24T23:59:45.701Z,3.15
